Time;durP1;ratioP1;P1;durP2;ratioP2;P2;SDS_P1;SDS_P2;PMS_P1;PMS_P2;Temp;Humidity;BMP_temperature;BMP_pressure;BME280_temperature;BME280_humidity;BME280_pressure;Samples;Min_cycle;Max_cycle;Signal;HPM_P1;HPM_P2
2021/04/15 00:01:13;;;;;;;13.70;8.27;;;3.20;97.20;;;;;;4992099;28;20045;-78
2021/04/15 00:03:39;;;;;;;15.30;8.77;;;3.70;98.40;;;;;;4978177;28;20031;-82
2021/04/15 00:06:14;;;;;;;14.23;8.00;;;3.40;98.40;;;;;;4982615;28;20027;-81
2021/04/15 00:08:44;;;;;;;13.55;7.88;;;3.20;97.40;;;;;;4983138;28;20030;-83
2021/04/15 00:11:12;;;;;;;12.82;8.52;;;3.20;97.40;;;;;;4976858;28;20026;-82
2021/04/15 00:13:41;;;;;;;13.43;8.50;;;5.80;98.30;;;;;;4975838;28;20121;-81
2021/04/15 00:16:08;;;;;;;12.63;8.60;;;3.10;97.60;;;;;;4989226;28;20053;-80
2021/04/15 00:18:34;;;;;;;13.68;9.00;;;3.10;97.80;;;;;;4976766;28;20026;-83
2021/04/15 00:21:00;;;;;;;14.50;7.90;;;3.30;97.70;;;;;;4971605;28;20037;-78
2021/04/15 00:23:26;;;;;;;10.27;7.78;;;3.00;97.80;;;;;;4994102;28;20031;-80
2021/04/15 00:25:52;;;;;;;12.98;8.45;;;3.00;98.10;;;;;;4974464;28;20445;-80
2021/04/15 00:28:18;;;;;;;11.27;8.35;;;2.90;98.30;;;;;;4971455;28;20038;-78
2021/04/15 00:30:44;;;;;;;12.70;9.25;;;2.90;98.50;;;;;;4977530;28;20392;-81
2021/04/15 00:33:11;;;;;;;12.73;9.32;;;2.90;98.80;;;;;;4975325;28;20408;-80
2021/04/15 00:35:38;;;;;;;12.98;8.95;;;2.80;98.60;;;;;;4993931;28;20039;-81
2021/04/15 00:38:04;;;;;;;12.77;9.10;;;2.90;98.50;;;;;;4980495;28;20037;-82
2021/04/15 00:40:32;;;;;;;12.07;9.15;;;2.90;98.50;;;;;;4976893;28;20028;-80
2021/04/15 00:42:57;;;;;;;13.00;9.18;;;2.90;98.70;;;;;;4974851;28;20038;-85
2021/04/15 00:45:28;;;;;;;12.82;9.35;;;4.50;99.00;;;;;;4999182;28;20243;-81
2021/04/15 00:48:06;;;;;;;21.20;12.13;;;3.00;98.90;;;;;;4976491;28;20472;-82
2021/04/15 00:50:52;;;;;;;15.90;9.07;;;2.90;98.50;;;;;;4974273;28;20534;-82
2021/04/15 00:53:27;;;;;;;13.88;8.77;;;2.90;98.40;;;;;;4969720;28;20058;-82
2021/04/15 00:55:53;;;;;;;13.98;9.05;;;2.90;98.60;;;;;;4974472;28;20034;-80
2021/04/15 00:58:20;;;;;;;14.32;8.88;;;2.90;98.60;;;;;;4973023;28;20100;-79
2021/04/15 01:00:46;;;;;;;13.98;9.02;;;2.90;98.60;;;;;;4978078;28;20069;-80
2021/04/15 01:03:12;;;;;;;13.95;8.82;;;2.90;98.70;;;;;;4974812;28;20065;-80
2021/04/15 01:05:40;;;;;;;12.93;9.05;;;2.80;98.60;;;;;;4975514;28;20034;-80
2021/04/15 01:08:06;;;;;;;11.75;8.70;;;2.90;98.70;;;;;;4971785;28;20547;-81
2021/04/15 01:10:39;;;;;;;14.18;9.00;;;2.90;98.80;;;;;;4971018;28;20472;-80
2021/04/15 01:13:29;;;;;;;12.20;8.95;;;2.80;98.70;;;;;;4976265;28;20416;-80
2021/04/15 01:16:00;;;;;;;13.55;9.50;;;2.80;98.80;;;;;;4975309;28;20113;-80
2021/04/15 01:18:38;;;;;;;12.60;9.23;;;2.80;98.80;;;;;;4974273;28;20085;-80
2021/04/15 01:21:33;;;;;;;13.70;8.88;;;2.90;99.00;;;;;;4986944;28;20039;-79
2021/04/15 01:24:02;;;;;;;12.95;9.18;;;2.80;98.80;;;;;;4974778;28;20362;-79
2021/04/15 01:26:46;;;;;;;15.63;9.25;;;2.80;98.80;;;;;;4998781;28;20076;-84
2021/04/15 01:29:22;;;;;;;13.02;8.88;;;2.90;98.80;;;;;;4990067;28;20030;-86
2021/04/15 01:32:13;;;;;;;12.15;8.32;;;2.80;98.30;;;;;;4991693;28;20141;-81
2021/04/15 01:34:48;;;;;;;;;;;2.80;98.40;;;;;;4971238;28;20062;-78
2021/04/15 01:37:35;;;;;;;11.63;8.63;;;2.70;98.60;;;;;;4997048;23;19926;-77
2021/04/15 01:40:12;;;;;;;13.63;9.27;;;2.70;98.90;;;;;;4967313;28;20372;-78
2021/04/15 01:43:03;;;;;;;12.32;8.73;;;2.60;98.80;;;;;;4960951;28;20218;-77
2021/04/15 01:45:30;;;;;;;14.43;9.35;;;2.60;99.00;;;;;;4947536;28;20472;-78
2021/04/15 01:48:01;;;;;;;13.50;8.98;;;2.60;99.10;;;;;;4962110;28;20042;-78
2021/04/15 01:50:38;;;;;;;;;;;2.50;99.50;;;;;;4949284;28;22630;-78
2021/04/15 01:53:11;;;;;;;14.30;8.73;;;2.30;99.30;;;;;;4944904;28;20002;-77
2021/04/15 01:55:42;;;;;;;14.63;9.65;;;2.50;99.40;;;;;;4957559;28;20034;-78
2021/04/15 01:58:21;;;;;;;;;;;2.50;99.60;;;;;;4949047;28;20019;-80
2021/04/15 02:00:50;;;;;;;15.05;8.90;;;2.40;99.50;;;;;;4948418;28;19918;-80
2021/04/15 02:03:23;;;;;;;14.93;9.40;;;2.40;99.50;;;;;;4956884;28;20035;-77
2021/04/15 02:05:54;;;;;;;13.05;9.27;;;2.40;99.70;;;;;;4946468;28;20153;-78
2021/04/15 02:08:24;;;;;;;14.07;9.63;;;2.40;99.90;;;;;;4948929;28;20038;-80
2021/04/15 02:11:00;;;;;;;15.05;9.20;;;2.30;99.80;;;;;;4949839;28;20031;-80
2021/04/15 02:13:27;;;;;;;15.45;9.73;;;2.40;99.90;;;;;;4949983;28;20035;-79
2021/04/15 02:16:03;;;;;;;15.45;9.95;;;2.40;99.90;;;;;;4966036;28;20508;-80
2021/04/15 02:18:35;;;;;;;14.57;9.73;;;2.30;99.80;;;;;;4963839;28;20039;-79
2021/04/15 02:21:24;;;;;;;15.23;10.02;;;2.20;99.90;;;;;;4952622;28;20518;-79
2021/04/15 02:23:56;;;;;;;16.45;9.38;;;2.30;99.90;;;;;;4942893;28;20038;-79
2021/04/15 02:26:29;;;;;;;16.50;9.82;;;2.20;99.90;;;;;;4947077;28;20487;-81
2021/04/15 02:29:07;;;;;;;12.85;9.50;;;2.20;99.90;;;;;;4959429;28;20043;-79
2021/04/15 02:31:49;;;;;;;15.88;10.48;;;2.20;99.90;;;;;;4940785;28;20126;-77
2021/04/15 02:34:23;;;;;;;15.32;10.40;;;2.20;99.90;;;;;;4941310;28;20035;-79
2021/04/15 02:37:09;;;;;;;17.02;10.45;;;2.10;99.90;;;;;;4946006;28;20053;-80
2021/04/15 02:40:03;;;;;;;15.52;9.85;;;2.10;99.90;;;;;;4946853;28;20038;-77
2021/04/15 02:42:33;;;;;;;15.13;10.52;;;2.10;99.90;;;;;;4955807;28;20137;-77
2021/04/15 02:45:05;;;;;;;14.15;10.20;;;2.10;99.90;;;;;;4948322;28;20125;-79
2021/04/15 02:47:38;;;;;;;15.70;10.20;;;2.10;99.90;;;;;;4963640;28;20027;-80
2021/04/15 02:50:11;;;;;;;16.45;10.68;;;2.00;99.90;;;;;;4942095;28;20058;-79
2021/04/15 02:52:43;;;;;;;15.00;9.57;;;4.30;99.90;;;;;;4961034;28;20385;-80
2021/04/15 02:55:16;;;;;;;16.23;10.10;;;2.00;99.90;;;;;;4949725;28;20039;-81
2021/04/15 02:58:14;;;;;;;14.48;10.18;;;2.00;99.90;;;;;;4959123;28;20037;-80
2021/04/15 03:00:41;;;;;;;16.25;10.48;;;2.00;99.90;;;;;;4954507;28;20127;-79
2021/04/15 03:03:17;;;;;;;14.23;10.63;;;2.00;99.90;;;;;;4957418;28;20027;-79
2021/04/15 03:05:50;;;;;;;15.20;9.93;;;1.90;99.90;;;;;;4967827;28;20037;-81
2021/04/15 03:08:23;;;;;;;15.57;10.88;;;2.00;99.90;;;;;;4945125;28;20049;-80
2021/04/15 03:10:55;;;;;;;14.82;10.65;;;2.00;99.90;;;;;;4964430;28;20105;-81
2021/04/15 03:13:36;;;;;;;14.68;10.35;;;2.00;99.90;;;;;;4949568;28;20054;-81
2021/04/15 03:16:05;;;;;;;14.10;9.88;;;2.00;99.90;;;;;;4948379;28;20496;-81
2021/04/15 03:19:12;;;;;;;16.80;10.50;;;2.00;99.90;;;;;;4951574;28;20086;-81
2021/04/15 03:22:05;;;;;;;15.63;10.25;;;2.00;99.90;;;;;;4938478;28;20045;-81
2021/04/15 03:24:42;;;;;;;13.98;9.80;;;2.10;99.90;;;;;;4942355;28;20536;-80
2021/04/15 03:27:22;;;;;;;15.38;9.88;;;1.90;99.90;;;;;;4943547;28;20076;-78
2021/04/15 03:30:20;;;;;;;15.15;10.35;;;2.00;99.90;;;;;;4945858;28;20066;-79
2021/04/15 03:33:07;;;;;;;15.70;10.07;;;2.00;99.90;;;;;;4930506;28;20090;-79
2021/04/15 03:35:37;;;;;;;14.18;9.82;;;2.00;99.90;;;;;;4962949;28;20030;-79
2021/04/15 03:38:21;;;;;;;14.50;10.07;;;1.90;99.90;;;;;;4948503;28;20035;-79
2021/04/15 03:40:56;;;;;;;15.15;9.52;;;1.90;99.90;;;;;;4960012;28;20034;-80
2021/04/15 03:43:31;;;;;;;15.27;10.25;;;1.80;99.90;;;;;;4966378;28;20046;-81
2021/04/15 03:46:21;;;;;;;16.95;10.20;;;1.80;99.90;;;;;;4965537;28;20956;-81
2021/04/15 03:48:52;;;;;;;15.40;10.63;;;1.80;99.90;;;;;;4967471;28;20121;-82
2021/04/15 03:51:51;;;;;;;16.40;10.70;;;1.80;99.90;;;;;;4969881;28;20031;-80
2021/04/15 03:54:22;;;;;;;14.07;10.27;;;1.80;99.90;;;;;;4950691;28;20027;-81
2021/04/15 03:56:50;;;;;;;15.18;10.43;;;1.70;99.90;;;;;;4963127;28;20032;-83
2021/04/15 04:00:00;;;;;;;13.70;10.13;;;1.80;99.90;;;;;;4951133;28;20030;-84
2021/04/15 04:02:34;;;;;;;17.60;10.63;;;1.80;99.90;;;;;;4931539;28;20035;-83
2021/04/15 04:05:06;;;;;;;17.52;10.88;;;1.80;99.90;;;;;;4968029;28;20534;-82
2021/04/15 04:07:38;;;;;;;15.52;10.57;;;1.80;99.90;;;;;;4969430;28;20031;-81
2021/04/15 04:10:09;;;;;;;15.98;10.43;;;1.70;99.90;;;;;;4954614;28;20105;-81
2021/04/15 04:12:41;;;;;;;17.27;11.07;;;1.80;99.90;;;;;;4954291;28;20153;-84
2021/04/15 04:15:15;;;;;;;16.75;10.70;;;1.80;99.90;;;;;;4954611;28;20031;-80
2021/04/15 04:17:50;;;;;;;15.38;11.32;;;1.90;99.90;;;;;;4951973;28;20468;-80
2021/04/15 04:20:18;;;;;;;16.63;11.50;;;1.70;99.90;;;;;;4952309;28;20038;-82
2021/04/15 04:22:57;;;;;;;15.27;11.25;;;1.80;99.90;;;;;;4970358;28;20042;-80
2021/04/15 04:25:38;;;;;;;18.23;11.75;;;1.70;99.90;;;;;;4971110;28;20035;-82
2021/04/15 04:28:33;;;;;;;17.88;11.38;;;1.70;99.90;;;;;;4965643;28;20090;-83
2021/04/15 04:31:11;;;;;;;18.05;12.13;;;1.70;99.90;;;;;;4959200;28;20039;-80
2021/04/15 04:33:47;;;;;;;16.42;11.73;;;1.60;99.90;;;;;;4966588;28;20019;-83
2021/04/15 04:36:15;;;;;;;18.23;12.27;;;1.60;99.90;;;;;;4951547;28;20389;-82
2021/04/15 04:38:41;;;;;;;21.00;11.85;;;1.60;99.90;;;;;;4953700;28;20157;-80
2021/04/15 04:41:17;;;;;;;17.40;12.05;;;1.60;99.90;;;;;;4971437;28;20392;-84
2021/04/15 04:43:55;;;;;;;19.20;12.27;;;2.70;99.90;;;;;;4952094;28;20037;-82
2021/04/15 04:46:30;;;;;;;19.95;12.63;;;1.70;99.90;;;;;;4952688;28;20026;-79
2021/04/15 04:49:19;;;;;;;17.83;12.55;;;1.70;99.90;;;;;;4952875;28;20042;-82
2021/04/15 04:51:50;;;;;;;18.73;11.40;;;1.70;99.90;;;;;;4960013;28;20097;-83
2021/04/15 04:54:21;;;;;;;20.25;12.23;;;1.70;99.90;;;;;;4964681;28;20081;-81
2021/04/15 04:56:53;;;;;;;20.15;12.95;;;1.60;99.90;;;;;;4969766;28;20799;-83
2021/04/15 04:59:42;;;;;;;19.90;12.60;;;1.60;99.90;;;;;;4949528;28;20097;-83
2021/04/15 05:02:08;;;;;;;20.38;12.90;;;1.70;99.90;;;;;;4970217;28;20039;-82
2021/04/15 05:04:35;;;;;;;20.50;13.18;;;1.60;99.90;;;;;;4968049;28;20102;-82
2021/04/15 05:07:05;;;;;;;20.20;13.02;;;3.70;99.90;;;;;;4972822;28;20125;-86
2021/04/15 05:09:39;;;;;;;21.85;13.23;;;1.50;99.90;;;;;;4955958;28;20035;-82
2021/04/15 05:12:12;;;;;;;20.98;13.48;;;1.50;99.90;;;;;;4971760;28;20113;-82
2021/04/15 05:14:39;;;;;;;20.63;12.73;;;1.60;99.90;;;;;;4952984;28;20026;-82
2021/04/15 05:17:19;;;;;;;23.88;15.52;;;1.70;99.90;;;;;;4957610;28;20473;-85
2021/04/15 05:19:44;;;;;;;21.42;14.23;;;1.60;99.90;;;;;;4955027;28;20022;-82
2021/04/15 05:22:20;;;;;;;25.33;14.02;;;1.60;99.90;;;;;;4967539;28;20125;-83
2021/04/15 05:24:49;;;;;;;21.58;14.00;;;1.70;99.90;;;;;;4968851;28;20495;-83
2021/04/15 05:27:18;;;;;;;20.55;14.18;;;1.70;99.90;;;;;;4972460;28;20054;-82
2021/04/15 05:29:47;;;;;;;21.77;12.65;;;1.70;99.90;;;;;;4971933;28;20038;-83
2021/04/15 05:32:16;;;;;;;26.30;13.32;;;1.70;99.90;;;;;;4965721;28;20030;-86
2021/04/15 05:34:51;;;;;;;23.42;12.55;;;1.70;99.90;;;;;;4973462;28;20566;-80
2021/04/15 05:37:22;;;;;;;20.77;12.38;;;1.80;99.90;;;;;;4956431;28;20026;-82
2021/04/15 05:39:49;;;;;;;27.40;13.48;;;1.90;99.90;;;;;;4963981;28;20042;-80
2021/04/15 05:42:27;;;;;;;21.25;13.27;;;1.90;99.90;;;;;;4969338;28;20407;-80
2021/04/15 05:45:06;;;;;;;18.48;11.95;;;2.00;99.90;;;;;;4968905;28;21058;-80
2021/04/15 05:47:50;;;;;;;20.98;13.63;;;2.10;99.90;;;;;;4964577;28;20484;-78
2021/04/15 05:50:37;;;;;;;17.33;12.23;;;2.10;99.90;;;;;;4940939;28;20027;-80
2021/04/15 05:53:26;;;;;;;19.55;12.80;;;2.20;99.90;;;;;;4953571;28;20416;-82
2021/04/15 05:55:56;;;;;;;17.17;13.05;;;2.20;99.90;;;;;;4971781;28;20027;-80
2021/04/15 05:58:31;;;;;;;17.57;12.37;;;2.30;99.90;;;;;;4955399;28;20105;-80
2021/04/15 06:01:03;;;;;;;18.85;13.30;;;2.30;99.90;;;;;;4974570;28;20278;-81
2021/04/15 06:03:43;;;;;;;18.77;12.80;;;2.30;99.90;;;;;;4952124;28;20054;-81
2021/04/15 06:06:16;;;;;;;20.30;11.98;;;2.40;99.90;;;;;;4957313;28;20031;-79
2021/04/15 06:08:45;;;;;;;19.77;11.93;;;2.50;99.90;;;;;;4954796;28;20042;-81
2021/04/15 06:11:39;;;;;;;22.10;12.45;;;2.60;99.90;;;;;;4966935;28;20042;-81
2021/04/15 06:14:30;;;;;;;20.67;12.52;;;2.70;99.90;;;;;;4945513;28;20031;-82
2021/04/15 06:17:08;;;;;;;18.38;12.40;;;2.60;99.90;;;;;;4956174;28;20042;-79
2021/04/15 06:19:37;;;;;;;22.77;14.50;;;2.80;99.90;;;;;;4955355;28;20031;-82
2021/04/15 06:22:14;;;;;;;16.98;11.98;;;2.90;99.90;;;;;;4971335;28;20022;-79
2021/04/15 06:24:44;;;;;;;19.83;12.57;;;2.90;99.90;;;;;;4960730;28;20042;-80
2021/04/15 06:27:11;;;;;;;17.63;12.23;;;4.90;99.90;;;;;;4970665;28;20043;-82
2021/04/15 06:30:02;;;;;;;21.15;12.30;;;3.10;99.90;;;;;;4962794;28;20037;-84
2021/04/15 06:32:38;;;;;;;18.27;11.63;;;3.20;99.80;;;;;;4955703;28;20374;-83
2021/04/15 06:35:07;;;;;;;16.70;12.15;;;3.30;99.80;;;;;;4966165;28;20445;-82
2021/04/15 06:37:36;;;;;;;16.45;11.93;;;3.50;99.50;;;;;;4957257;28;20047;-80
2021/04/15 06:40:45;;;;;;;17.13;11.35;;;3.60;99.10;;;;;;4961853;28;20031;-82
2021/04/15 06:43:42;;;;;;;16.60;10.82;;;3.80;99.00;;;;;;4951523;28;20039;-81
2021/04/15 06:46:50;;;;;;;14.45;10.80;;;4.00;98.60;;;;;;4964863;28;20030;-84
2021/04/15 06:49:36;;;;;;;13.63;9.38;;;4.20;98.30;;;;;;4966809;28;20088;-85
2021/04/15 06:52:34;;;;;;;15.00;8.75;;;4.40;97.90;;;;;;4954938;28;20050;-81
2021/04/15 06:55:12;;;;;;;12.10;7.75;;;4.60;97.50;;;;;;4959126;28;20087;-79
2021/04/15 06:58:07;;;;;;;13.30;8.05;;;4.80;96.90;;;;;;4967258;28;20053;-81
2021/04/15 07:00:54;;;;;;;12.55;7.13;;;5.00;96.10;;;;;;4946812;28;20039;-79
2021/04/15 07:03:39;;;;;;;11.05;7.63;;;5.20;95.80;;;;;;4973734;28;20027;-82
2021/04/15 07:06:20;;;;;;;9.32;6.38;;;5.40;95.30;;;;;;4954612;28;20034;-81
2021/04/15 07:08:57;;;;;;;10.85;6.97;;;5.60;94.70;;;;;;4963869;28;20039;-85
2021/04/15 07:11:32;;;;;;;9.57;6.22;;;5.80;94.10;;;;;;4976833;28;20030;-82
2021/04/15 07:14:08;;;;;;;10.55;6.80;;;5.90;93.80;;;;;;4954345;28;20035;-79
2021/04/15 07:16:52;;;;;;;14.90;7.35;;;6.00;93.60;;;;;;4970626;28;20034;-80
2021/04/15 07:19:23;;;;;;;10.43;6.72;;;6.20;93.30;;;;;;4946781;28;20066;-80
2021/04/15 07:22:24;;;;;;;9.32;6.95;;;6.20;93.10;;;;;;4951200;28;20077;-79
2021/04/15 07:25:09;;;;;;;12.57;7.68;;;6.40;92.50;;;;;;4953408;28;20122;-80
2021/04/15 07:27:56;;;;;;;11.43;6.78;;;6.40;92.30;;;;;;4955770;28;20085;-82
2021/04/15 07:30:58;;;;;;;9.43;6.50;;;6.40;92.20;;;;;;4970507;28;20063;-83
2021/04/15 07:34:09;;;;;;;12.05;6.90;;;6.50;92.20;;;;;;4966481;28;20025;-81
2021/04/15 07:37:14;;;;;;;9.93;6.95;;;6.70;92.00;;;;;;4952727;28;20046;-81
2021/04/15 07:40:04;;;;;;;10.82;6.63;;;6.80;91.70;;;;;;4952531;28;20126;-80
2021/04/15 07:42:43;;;;;;;11.20;5.82;;;6.90;91.00;;;;;;4957607;28;20500;-84
2021/04/15 07:45:20;;;;;;;9.10;5.85;;;7.10;90.40;;;;;;4964704;28;20584;-80
2021/04/15 07:48:13;;;;;;;9.32;6.68;;;7.10;90.60;;;;;;4964278;28;20035;-81
2021/04/15 07:50:48;;;;;;;8.55;5.82;;;7.10;90.10;;;;;;4955652;28;20030;-80
2021/04/15 07:53:36;;;;;;;8.15;5.90;;;7.20;90.20;;;;;;4951567;28;20031;-78
2021/04/15 07:56:27;;;;;;;8.02;5.43;;;7.30;89.80;;;;;;4937628;28;20074;-78
2021/04/15 07:59:23;;;;;;;10.52;5.05;;;7.40;88.30;;;;;;4972371;28;20038;-82
2021/04/15 08:01:49;;;;;;;8.27;5.20;;;7.50;88.50;;;;;;4946051;28;20049;-82
2021/04/15 08:04:39;;;;;;;10.30;5.88;;;7.60;88.50;;;;;;4962304;28;20034;-82
2021/04/15 08:07:29;;;;;;;8.68;5.45;;;7.40;88.20;;;;;;4963989;28;20548;-85
2021/04/15 08:09:57;;;;;;;10.05;4.97;;;7.70;87.30;;;;;;4961811;28;20041;-81
2021/04/15 08:12:31;;;;;;;7.35;4.85;;;7.80;84.90;;;;;;4959797;28;20292;-80
2021/04/15 08:14:56;;;;;;;7.60;4.75;;;7.90;84.70;;;;;;4962018;28;20023;-80
2021/04/15 08:18:04;;;;;;;7.10;4.72;;;8.00;84.10;;;;;;4947834;28;20039;-80
2021/04/15 08:20:55;;;;;;;7.20;4.78;;;8.10;82.70;;;;;;4962071;28;20038;-81
2021/04/15 08:23:40;;;;;;;7.32;4.57;;;8.20;81.30;;;;;;4948652;28;20041;-80
2021/04/15 08:26:26;;;;;;;9.07;4.70;;;8.10;80.20;;;;;;4951475;28;20038;-81
2021/04/15 08:29:37;;;;;;;6.95;4.75;;;8.00;82.30;;;;;;4962834;28;20042;-82
2021/04/15 08:32:13;;;;;;;6.93;4.35;;;8.30;81.50;;;;;;4933430;28;20057;-83
2021/04/15 08:35:20;;;;;;;6.63;4.10;;;8.60;79.30;;;;;;4954724;28;20058;-80
2021/04/15 08:38:01;;;;;;;9.07;4.53;;;8.70;78.00;;;;;;4969663;28;20196;-80
2021/04/15 08:40:49;;;;;;;6.18;4.30;;;8.90;74.50;;;;;;4950477;28;20090;-80
2021/04/15 08:43:24;;;;;;;7.82;4.15;;;9.00;74.70;;;;;;4952588;28;20037;-81
2021/04/15 08:46:13;;;;;;;8.02;4.68;;;9.00;73.50;;;;;;4951290;28;20053;-81
2021/04/15 08:48:53;;;;;;;4.55;3.47;;;9.10;72.90;;;;;;4975919;28;20069;-81
2021/04/15 08:51:37;;;;;;;6.37;3.60;;;9.20;71.20;;;;;;4953695;28;20475;-83
2021/04/15 08:54:11;;;;;;;5.13;3.80;;;9.30;69.90;;;;;;4961202;28;20137;-82
2021/04/15 08:56:50;;;;;;;6.28;3.58;;;9.60;68.90;;;;;;4955627;28;20117;-80
2021/04/15 08:59:21;;;;;;;5.53;3.60;;;9.90;66.50;;;;;;4957091;28;20030;-83
2021/04/15 09:01:57;;;;;;;;;;;10.00;65.20;;;;;;4977082;28;20034;-80
2021/04/15 09:04:54;;;;;;;5.47;3.22;;;10.20;63.70;;;;;;4949018;28;20394;-82
2021/04/15 09:07:37;;;;;;;5.65;3.10;;;10.30;59.70;;;;;;4955014;28;20277;-79
2021/04/15 09:10:19;;;;;;;5.50;2.80;;;10.50;61.10;;;;;;4942747;28;20037;-83
2021/04/15 09:12:57;;;;;;;4.60;2.95;;;10.40;60.40;;;;;;4947297;28;20126;-81
2021/04/15 09:15:54;;;;;;;5.88;3.30;;;10.30;59.40;;;;;;4959200;28;20557;-83
2021/04/15 09:18:34;;;;;;;5.03;3.38;;;10.40;59.10;;;;;;4963627;28;20030;-85
2021/04/15 09:21:22;;;;;;;3.97;2.92;;;10.30;59.90;;;;;;4966305;28;20046;-81
2021/04/15 09:24:07;;;;;;;5.63;3.65;;;10.50;58.10;;;;;;4955240;28;20459;-79
2021/04/15 09:26:57;;;;;;;5.28;3.42;;;10.60;56.30;;;;;;4967974;28;20027;-82
2021/04/15 09:29:38;;;;;;;5.37;3.13;;;10.70;55.80;;;;;;4953821;28;20034;-85
2021/04/15 09:32:20;;;;;;;6.10;3.20;;;10.80;56.20;;;;;;4969467;28;20030;-81
2021/04/15 09:35:08;;;;;;;5.25;3.10;;;11.20;55.80;;;;;;4952812;28;20035;-81
2021/04/15 09:38:10;;;;;;;4.82;2.92;;;11.40;54.60;;;;;;4972885;28;20042;-81
2021/04/15 09:40:58;;;;;;;4.78;3.10;;;11.20;55.30;;;;;;4931499;28;20045;-78
2021/04/15 09:43:41;;;;;;;4.75;3.00;;;11.30;54.40;;;;;;4950354;28;20035;-82
2021/04/15 09:46:28;;;;;;;4.88;2.92;;;11.20;53.90;;;;;;4967775;28;20023;-80
2021/04/15 09:49:03;;;;;;;5.35;3.30;;;10.80;53.20;;;;;;4951791;28;20038;-79
2021/04/15 09:51:41;;;;;;;5.88;3.58;;;10.30;53.90;;;;;;4956594;28;20065;-78
2021/04/15 09:54:23;;;;;;;5.70;3.00;;;9.80;55.00;;;;;;4970322;28;20035;-81
2021/04/15 09:57:21;;;;;;;6.65;3.30;;;9.80;55.40;;;;;;4971731;28;20031;-81
2021/04/15 10:00:17;;;;;;;5.28;3.10;;;9.70;55.70;;;;;;4948017;28;20106;-81
2021/04/15 10:03:33;;;;;;;4.30;2.90;;;9.60;56.30;;;;;;4991145;28;20031;-85
2021/04/15 10:06:28;;;;;;;5.15;2.88;;;9.60;56.10;;;;;;4838857;29;20053;-79
2021/04/15 10:09:03;;;;;;;3.85;2.75;;;9.20;56.30;;;;;;4862601;29;20029;-78
2021/04/15 10:11:59;;;;;;;5.47;3.00;;;9.30;56.30;;;;;;4922116;28;20039;-79
2021/04/15 10:14:48;;;;;;;5.07;2.80;;;9.30;56.90;;;;;;4968787;28;20027;-82
2021/04/15 10:17:25;;;;;;;5.65;2.70;;;9.80;55.90;;;;;;4957551;28;20066;-80
2021/04/15 10:20:20;;;;;;;4.85;2.95;;;10.20;53.30;;;;;;4949796;28;20034;-80
2021/04/15 10:22:55;;;;;;;4.03;2.63;;;10.30;54.00;;;;;;4970820;28;20143;-81
2021/04/15 10:25:31;;;;;;;5.70;2.90;;;10.30;53.10;;;;;;4973594;28;20027;-82
2021/04/15 10:28:19;;;;;;;5.15;3.10;;;10.50;53.60;;;;;;4970204;28;20026;-80
2021/04/15 10:31:32;;;;;;;6.82;4.20;;;10.60;54.00;;;;;;4946812;28;20031;-83
2021/04/15 10:34:26;;;;;;;5.82;3.40;;;11.00;51.90;;;;;;4932136;28;20035;-80
2021/04/15 10:37:14;;;;;;;3.90;2.92;;;10.70;52.60;;;;;;4967871;28;20484;-81
2021/04/15 10:40:01;;;;;;;5.10;2.70;;;10.80;51.70;;;;;;4953355;28;20041;-87
2021/04/15 10:42:55;;;;;;;4.20;2.50;;;10.80;51.60;;;;;;4952235;28;20082;-82
2021/04/15 10:45:27;;;;;;;5.20;2.65;;;;;;;;;;4948016;28;20027;-82
2021/04/15 10:48:14;;;;;;;4.00;2.60;;;11.30;49.20;;;;;;4965903;28;20039;-82
2021/04/15 10:51:27;;;;;;;4.88;2.67;;;11.70;49.10;;;;;;4965484;28;20027;-81
2021/04/15 10:54:02;;;;;;;5.70;3.15;;;11.20;49.70;;;;;;4961545;28;20038;-83
2021/04/15 10:56:30;;;;;;;5.78;2.80;;;10.60;51.00;;;;;;4969446;28;20050;-81
2021/04/15 10:59:01;;;;;;;4.15;2.38;;;10.50;51.30;;;;;;4964445;28;20035;-82
2021/04/15 11:01:31;;;;;;;3.67;2.35;;;10.60;50.10;;;;;;4962454;28;20486;-78
2021/04/15 11:04:09;;;;;;;4.15;2.60;;;10.90;49.00;;;;;;4951906;28;20023;-84
2021/04/15 11:07:05;;;;;;;3.58;2.58;;;11.20;46.20;;;;;;4968148;28;20030;-85
2021/04/15 11:09:33;;;;;;;5.53;2.70;;;11.50;45.50;;;;;;4949672;28;20035;-80
2021/04/15 11:12:17;;;;;;;4.03;2.40;;;11.30;46.20;;;;;;4962790;28;20034;-80
2021/04/15 11:14:42;;;;;;;7.40;2.85;;;11.00;48.20;;;;;;4963216;28;20038;-77
2021/04/15 11:17:23;;;;;;;3.88;2.38;;;12.50;49.60;;;;;;4968368;28;20019;-77
2021/04/15 11:20:07;;;;;;;5.07;2.60;;;11.00;47.60;;;;;;4953422;28;20033;-80
2021/04/15 11:22:35;;;;;;;7.93;2.50;;;11.00;47.10;;;;;;4955994;28;20031;-79
2021/04/15 11:25:12;;;;;;;5.47;2.85;;;10.90;46.50;;;;;;4950175;28;20043;-83
2021/04/15 11:27:38;;;;;;;3.00;2.30;;;10.90;46.80;;;;;;4957906;28;20122;-80
2021/04/15 11:30:05;;;;;;;3.63;2.05;;;11.00;46.20;;;;;;4968952;28;20126;-84
2021/04/15 11:32:31;;;;;;;7.47;2.47;;;10.90;46.50;;;;;;4961013;28;20030;-79
2021/04/15 11:35:20;;;;;;;3.42;2.30;;;10.90;47.10;;;;;;4968415;28;20027;-82
2021/04/15 11:37:49;;;;;;;5.88;2.63;;;10.90;46.90;;;;;;4975570;28;20038;-78
2021/04/15 11:40:35;;;;;;;3.55;2.28;;;10.70;46.70;;;;;;4955210;28;20058;-80
2021/04/15 11:43:18;;;;;;;7.57;2.30;;;10.70;47.10;;;;;;4960442;28;20034;-78
2021/04/15 11:45:44;;;;;;;4.38;2.20;;;10.60;48.00;;;;;;4955095;28;20050;-80
2021/04/15 11:48:15;;;;;;;4.05;2.10;;;10.60;48.20;;;;;;4973874;28;20031;-80
2021/04/15 11:50:41;;;;;;;3.03;2.25;;;12.40;47.50;;;;;;4958116;28;20047;-80
2021/04/15 11:53:46;;;;;;;3.63;2.47;;;11.30;47.40;;;;;;4960467;28;20130;-83
2021/04/15 11:56:34;;;;;;;3.53;2.13;;;11.50;44.40;;;;;;4959337;28;20065;-81
2021/04/15 11:59:24;;;;;;;3.78;2.35;;;12.00;44.50;;;;;;4951527;28;20050;-80
2021/04/15 12:01:51;;;;;;;;;;;12.00;44.00;;;;;;4975467;28;20034;-77
2021/04/15 12:04:25;;;;;;;2.90;2.08;;;11.50;47.90;;;;;;4968801;28;19918;-79
2021/04/15 12:07:08;;;;;;;4.70;2.80;;;12.60;48.30;;;;;;4956676;28;20042;-80
2021/04/15 12:09:36;;;;;;;7.53;2.63;;;11.00;53.10;;;;;;4959195;28;20069;-80
2021/04/15 12:12:16;;;;;;;4.65;2.53;;;9.90;56.00;;;;;;4967114;28;20022;-81
2021/04/15 12:14:43;;;;;;;3.77;2.40;;;9.00;58.70;;;;;;4953290;28;20038;-81
2021/04/15 12:17:27;;;;;;;4.30;2.38;;;10.60;60.20;;;;;;4971091;28;20035;-79
2021/04/15 12:20:11;;;;;;;4.68;2.20;;;9.00;59.20;;;;;;4955248;28;20023;-79
2021/04/15 12:22:45;;;;;;;4.57;2.67;;;9.20;55.80;;;;;;4978894;28;20035;-79
2021/04/15 12:25:16;;;;;;;5.82;2.50;;;9.50;54.30;;;;;;4970039;28;20058;-83
2021/04/15 12:27:51;;;;;;;5.07;2.28;;;9.80;53.10;;;;;;4958442;28;20110;-86
2021/04/15 12:30:26;;;;;;;3.25;2.45;;;10.20;49.60;;;;;;4977080;28;20093;-80
2021/04/15 12:33:16;;;;;;;3.17;2.10;;;10.20;50.00;;;;;;4976145;28;20499;-85
2021/04/15 12:35:55;;;;;;;3.15;1.80;;;10.60;50.10;;;;;;4960716;28;20030;-77
2021/04/15 12:38:40;;;;;;;4.65;2.28;;;10.90;45.40;;;;;;4952585;28;20058;-85
2021/04/15 12:41:09;;;;;;;4.13;2.60;;;11.40;45.50;;;;;;4977714;28;20031;-81
2021/04/15 12:43:41;;;;;;;3.63;2.13;;;11.40;44.70;;;;;;4958699;28;20101;-85
2021/04/15 12:46:16;;;;;;;2.75;1.98;;;11.30;44.80;;;;;;4959793;28;20552;-82
2021/04/15 12:48:46;;;;;;;4.68;2.20;;;11.40;45.30;;;;;;4960789;28;20093;-79
2021/04/15 12:51:21;;;;;;;3.33;1.85;;;11.50;45.00;;;;;;4969206;28;20031;-79
2021/04/15 12:53:47;;;;;;;3.92;2.17;;;11.60;43.70;;;;;;4967623;28;20031;-80
2021/04/15 12:56:18;;;;;;;4.28;2.30;;;12.50;45.50;;;;;;4971399;28;20058;-85
2021/04/15 12:58:45;;;;;;;4.93;2.78;;;12.30;42.80;;;;;;4951454;28;20035;-82
2021/04/15 13:01:11;;;;;;;4.82;2.63;;;12.40;42.90;;;;;;4958234;28;20039;-78
2021/04/15 13:03:39;;;;;;;4.05;1.98;;;14.80;45.20;;;;;;4972325;28;20026;-79
2021/04/15 13:06:11;;;;;;;5.95;2.38;;;12.90;43.00;;;;;;4970960;28;20038;-83
2021/04/15 13:08:39;;;;;;;4.38;2.40;;;12.90;43.40;;;;;;4958921;28;20043;-82
2021/04/15 13:11:17;;;;;;;6.78;2.63;;;13.30;41.40;;;;;;4976710;28;20034;-81
2021/04/15 13:13:44;;;;;;;3.35;2.10;;;13.10;42.60;;;;;;4963422;28;20046;-78
2021/04/15 13:16:32;;;;;;;3.97;1.90;;;12.90;42.40;;;;;;4951340;28;20031;-79
2021/04/15 13:19:00;;;;;;;3.53;1.52;;;12.60;42.30;;;;;;4955522;28;20059;-80
2021/04/15 13:21:34;;;;;;;4.80;1.88;;;12.20;43.20;;;;;;4952299;28;20038;-80
2021/04/15 13:24:21;;;;;;;5.40;1.98;;;11.50;46.60;;;;;;4954953;28;20034;-80
2021/04/15 13:26:46;;;;;;;5.18;1.60;;;11.10;47.90;;;;;;4956479;28;20033;-83
2021/04/15 13:29:19;;;;;;;2.65;1.60;;;10.80;46.70;;;;;;4959625;28;20433;-80
2021/04/15 13:31:49;;;;;;;2.28;1.40;;;10.50;45.30;;;;;;4971879;28;20106;-81
2021/04/15 13:34:36;;;;;;;2.53;1.40;;;11.00;45.50;;;;;;4970103;28;20023;-84
2021/04/15 13:37:38;;;;;;;1.95;1.50;;;9.90;44.10;;;;;;4978544;23;20055;-75
2021/04/15 13:40:28;;;;;;;2.88;1.55;;;9.80;44.40;;;;;;4964674;28;20031;-77
2021/04/15 13:42:56;;;;;;;2.85;1.63;;;9.80;45.90;;;;;;4961371;28;20034;-76
2021/04/15 13:45:48;;;;;;;2.70;1.42;;;9.80;44.10;;;;;;4945868;28;21231;-77
2021/04/15 13:49:18;;;;;;;2.47;1.75;;;9.90;44.80;;;;;;4956466;28;20421;-78